Farmingville, New York
Current Conditions -  °F | °C
As of 12:56 AM on Sunday 21 Dec 2014 (Local Time) from KISP Reporting Station
Overcast Overcast  
Wind Chill: 33°   Ceiling: 1300
Heat Index: 33°   Visibility: 10mi
Dew Point: 26°   Wind: 3mph
Humidity: 75%   Direction: 280°W
Pressure: 30.26"   Gusts: NA
Location:  40.83°N, 73.04°W
Report Text: KISP 210556Z AUTO 28003KT 10SM OVC013 01/M03 A3026 RMK AO2 SLP246 T00061033 10006 20006 56002
Loading
Personal Weather Stations






























Interactive Weather Map New forecast layout! Learn more

10-Day Weather Forecast

Advertisements
Track Severe Weather on mobile